createdAt,value
2023-04-18T00:01:31.793Z,18.10
2023-04-18T00:04:02.975Z,16.57
2023-04-18T00:06:33.195Z,18.15
2023-04-18T00:09:04.072Z,23.00
2023-04-18T00:11:34.455Z,33.53
2023-04-18T00:16:34.921Z,31.50
2023-04-18T00:19:08.729Z,28.52
2023-04-18T00:21:38.415Z,28.83
2023-04-18T00:24:08.169Z,26.48
2023-04-18T00:26:37.887Z,22.32
2023-04-18T00:29:07.238Z,20.15
2023-04-18T00:31:37.578Z,19.32
2023-04-18T00:34:07.067Z,17.85
2023-04-18T00:36:36.485Z,18.60
2023-04-18T00:39:07.496Z,19.07
2023-04-18T00:41:36.978Z,17.92
2023-04-18T00:44:06.546Z,20.43
2023-04-18T00:46:36.310Z,22.15
2023-04-18T00:49:06.290Z,20.62
2023-04-18T00:51:37.204Z,19.87
2023-04-18T00:54:08.433Z,21.87
2023-04-18T00:56:38.032Z,22.52
2023-04-18T00:59:11.084Z,21.42
2023-04-18T01:01:41.593Z,19.92
2023-04-18T01:04:11.298Z,21.20
2023-04-18T01:06:43.937Z,21.37
2023-04-18T01:09:14.946Z,22.87
2023-04-18T01:11:46.245Z,24.72
2023-04-18T01:14:20.670Z,27.75
2023-04-18T01:16:50.084Z,28.38
2023-04-18T01:19:21.450Z,30.20
2023-04-18T01:21:52.581Z,33.08
2023-04-18T01:24:24.151Z,32.40
2023-04-18T01:26:54.773Z,35.63
2023-04-18T01:29:24.237Z,35.70
2023-04-18T01:31:53.735Z,34.27
2023-04-18T01:34:23.257Z,35.90
2023-04-18T01:36:52.701Z,33.20
2023-04-18T01:39:22.139Z,35.20
2023-04-18T01:41:51.575Z,34.70
2023-04-18T01:44:21.029Z,36.00
2023-04-18T01:46:51.772Z,34.92
2023-04-18T01:49:21.397Z,36.88
2023-04-18T01:51:51.320Z,35.08
2023-04-18T01:54:25.337Z,36.13
2023-04-18T01:56:54.697Z,33.92
2023-04-18T01:59:24.205Z,34.53
2023-04-18T02:01:56.753Z,34.13
2023-04-18T02:04:26.529Z,35.23
2023-04-18T02:06:59.276Z,34.90
2023-04-18T02:09:28.829Z,32.00
2023-04-18T02:11:59.515Z,34.37
2023-04-18T02:14:33.199Z,32.35
2023-04-18T02:17:02.760Z,29.70
2023-04-18T02:19:32.319Z,32.08
2023-04-18T02:22:06.681Z,31.02
2023-04-18T02:24:36.084Z,28.87
2023-04-18T02:27:06.920Z,31.70
2023-04-18T02:29:37.459Z,30.88
2023-04-18T02:32:07.428Z,29.05
2023-04-18T02:34:39.438Z,27.55
2023-04-18T02:37:08.907Z,30.15
2023-04-18T02:39:40.186Z,29.87
2023-04-18T02:42:09.625Z,29.53
2023-04-18T02:44:39.037Z,30.20
2023-04-18T02:47:08.637Z,30.63
2023-04-18T02:49:40.811Z,30.37
2023-04-18T02:52:11.397Z,29.18
2023-04-18T02:54:40.888Z,29.12
2023-04-18T02:57:13.859Z,27.55
2023-04-18T02:59:57.306Z,29.00
2023-04-18T03:02:46.674Z,27.13
2023-04-18T03:05:25.418Z,30.82
2023-04-18T03:07:56.580Z,29.80
2023-04-18T03:10:26.082Z,28.03
2023-04-18T03:12:55.819Z,26.65
2023-04-18T03:15:25.492Z,28.35
2023-04-18T03:17:55.101Z,27.58
2023-04-18T03:20:25.626Z,25.92
2023-04-18T03:22:56.202Z,25.43
2023-04-18T03:25:27.096Z,24.77
2023-04-18T03:27:56.576Z,26.23
2023-04-18T03:30:26.961Z,24.32
2023-04-18T03:32:57.189Z,25.85
2023-04-18T03:35:28.252Z,25.52
2023-04-18T03:37:58.243Z,24.82
2023-04-18T03:40:29.416Z,24.95
2023-04-18T03:43:00.549Z,26.00
2023-04-18T03:45:30.180Z,25.30
2023-04-18T03:47:59.793Z,24.23
2023-04-18T03:50:29.681Z,27.15
2023-04-18T03:52:59.770Z,25.57
2023-04-18T03:55:30.990Z,24.25
2023-04-18T03:58:02.064Z,24.80
2023-04-18T04:00:33.832Z,24.25
2023-04-18T04:03:05.134Z,23.40
2023-04-18T04:05:34.716Z,22.13
2023-04-18T04:08:05.782Z,22.23
2023-04-18T04:10:35.933Z,23.00
2023-04-18T04:13:08.444Z,22.07
2023-04-18T04:15:40.076Z,23.02
2023-04-18T04:18:12.600Z,22.73
2023-04-18T04:20:44.703Z,22.25
2023-04-18T04:23:15.883Z,22.85
2023-04-18T04:25:46.457Z,22.98
2023-04-18T04:28:24.723Z,22.62
2023-04-18T04:30:56.302Z,22.30
2023-04-18T04:33:32.250Z,20.73
2023-04-18T04:36:03.002Z,22.60
2023-04-18T04:38:34.350Z,22.62
2023-04-18T04:41:07.317Z,20.52
2023-04-18T04:43:37.940Z,22.35
2023-04-18T04:46:07.844Z,22.55
2023-04-18T04:48:37.444Z,21.52
2023-04-18T04:51:06.958Z,19.80
2023-04-18T04:53:37.117Z,19.50
2023-04-18T04:58:36.333Z,20.70
2023-04-18T05:01:11.434Z,18.82
2023-04-18T05:03:41.368Z,18.27
2023-04-18T05:06:10.895Z,17.02
2023-04-18T05:08:40.460Z,16.65
2023-04-18T05:11:09.825Z,17.42
2023-04-18T05:13:39.259Z,17.17
2023-04-18T05:16:08.764Z,16.73
2023-04-18T05:18:39.887Z,16.27
2023-04-18T05:21:09.400Z,14.75
2023-04-18T05:23:38.897Z,17.65
2023-04-18T05:26:08.416Z,15.50
2023-04-18T05:28:37.842Z,16.20
2023-04-18T05:31:07.267Z,16.83
2023-04-18T05:33:36.693Z,15.80
2023-04-18T05:36:06.677Z,14.73
2023-04-18T05:38:36.171Z,15.48
2023-04-18T05:41:05.704Z,14.80
2023-04-18T05:43:35.207Z,14.98
2023-04-18T05:46:04.885Z,14.13
2023-04-18T05:48:34.267Z,14.90
2023-04-18T05:51:04.809Z,15.13
2023-04-18T05:53:34.232Z,14.20
2023-04-18T05:56:03.871Z,14.93
2023-04-18T05:58:33.354Z,15.00
2023-04-18T06:01:02.925Z,14.30
2023-04-18T06:03:32.598Z,14.23
2023-04-18T06:06:02.376Z,15.05
2023-04-18T06:08:31.856Z,13.55
2023-04-18T06:11:01.282Z,13.58
2023-04-18T06:13:30.855Z,13.37
2023-04-18T06:16:01.939Z,14.35
2023-04-18T06:18:31.481Z,12.98
2023-04-18T06:21:01.179Z,15.18
2023-04-18T06:23:30.776Z,13.72
2023-04-18T06:26:00.264Z,12.15
2023-04-18T06:28:29.801Z,12.07
2023-04-18T06:30:59.317Z,13.80
2023-04-18T06:33:28.822Z,15.33
2023-04-18T06:35:59.193Z,14.27
2023-04-18T06:38:28.731Z,13.58
2023-04-18T06:40:58.168Z,12.68
2023-04-18T06:43:27.648Z,14.43
2023-04-18T06:45:57.158Z,12.70
2023-04-18T06:48:26.637Z,13.77
2023-04-18T06:50:56.006Z,12.33
2023-04-18T06:53:25.490Z,13.53
2023-04-18T06:55:55.121Z,14.80
2023-04-18T06:58:24.616Z,13.72
2023-04-18T07:00:54.114Z,13.97
2023-04-18T07:03:23.621Z,13.43
2023-04-18T07:05:53.310Z,13.55
2023-04-18T07:08:22.752Z,14.45
2023-04-18T07:10:52.912Z,13.43
2023-04-18T07:13:22.285Z,14.53
2023-04-18T07:15:51.724Z,15.55
2023-04-18T07:18:34.325Z,16.20
2023-04-18T07:20:52.250Z,15.53
2023-04-18T07:23:21.852Z,15.33
2023-04-18T07:25:51.401Z,15.72
2023-04-18T07:28:21.041Z,14.87
2023-04-18T07:30:50.575Z,17.27
2023-04-18T07:33:20.669Z,18.40
2023-04-18T07:35:50.349Z,15.93
2023-04-18T07:38:19.854Z,16.00
2023-04-18T07:40:57.783Z,16.27
2023-04-18T07:43:27.691Z,14.10
2023-04-18T07:45:57.349Z,15.15
2023-04-18T07:48:26.930Z,12.93
2023-04-18T07:50:56.411Z,17.53
2023-04-18T07:53:26.062Z,15.07
2023-04-18T07:55:55.925Z,13.88
2023-04-18T07:58:25.335Z,14.65
2023-04-18T08:00:54.758Z,12.83
2023-04-18T08:03:24.546Z,14.68
2023-04-18T08:05:54.443Z,15.20
2023-04-18T08:08:23.844Z,13.43
2023-04-18T08:10:53.261Z,13.62
2023-04-18T08:13:22.807Z,13.03
2023-04-18T08:15:52.573Z,12.93
2023-04-18T08:18:23.086Z,13.95
2023-04-18T08:20:52.563Z,14.55
2023-04-18T08:23:22.010Z,13.47
2023-04-18T08:25:51.506Z,13.93
2023-04-18T08:28:20.966Z,14.70
2023-04-18T08:30:51.352Z,14.07
2023-04-18T08:35:50.929Z,13.98
2023-04-18T08:38:20.588Z,13.70
2023-04-18T08:40:50.138Z,15.32
2023-04-18T08:43:19.626Z,15.23
2023-04-18T08:45:49.162Z,13.90
2023-04-18T08:48:19.484Z,14.95
2023-04-18T08:50:48.903Z,15.28
2023-04-18T08:53:18.564Z,14.30
2023-04-18T08:55:49.889Z,14.73
2023-04-18T08:58:24.410Z,14.40
2023-04-18T09:00:54.610Z,13.78
2023-04-18T09:03:44.137Z,14.43
2023-04-18T09:06:17.412Z,17.03
2023-04-18T09:08:59.030Z,13.62
2023-04-18T09:11:31.729Z,13.62
2023-04-18T09:14:02.312Z,13.83
2023-04-18T09:16:34.886Z,14.50
2023-04-18T09:19:17.625Z,14.85
2023-04-18T09:21:48.669Z,14.40
2023-04-18T09:24:24.168Z,13.72
2023-04-18T09:26:55.935Z,14.60
2023-04-18T09:29:45.187Z,15.35
2023-04-18T09:32:29.366Z,16.17
2023-04-18T09:35:04.602Z,14.10
2023-04-18T09:37:34.009Z,14.93
2023-04-18T09:40:06.569Z,15.40
2023-04-18T09:42:38.968Z,14.93
2023-04-18T09:45:09.098Z,13.62
2023-04-18T09:47:38.537Z,16.57
2023-04-18T09:50:10.270Z,16.17
2023-04-18T09:52:42.105Z,17.17
2023-04-18T09:55:17.252Z,16.42
2023-04-18T09:57:48.957Z,15.10
2023-04-18T10:00:26.850Z,16.55
2023-04-18T10:03:08.537Z,15.48
2023-04-18T10:05:41.395Z,13.78
2023-04-18T10:08:11.428Z,14.73
2023-04-18T10:10:41.527Z,13.80
2023-04-18T10:13:14.212Z,13.28
2023-04-18T10:15:45.556Z,15.23
2023-04-18T10:18:17.852Z,14.70
2023-04-18T10:20:48.322Z,13.90
2023-04-18T10:23:38.201Z,14.38
2023-04-18T10:26:08.652Z,14.90
2023-04-18T10:28:53.292Z,14.90
2023-04-18T10:31:25.973Z,13.72
2023-04-18T10:36:29.003Z,14.03
2023-04-18T10:39:06.981Z,13.25
2023-04-18T10:41:38.426Z,12.73
2023-04-18T10:44:12.670Z,12.37
2023-04-18T10:47:01.726Z,11.35
2023-04-18T10:49:34.380Z,10.93
2023-04-18T10:52:06.583Z,11.55
2023-04-18T10:54:58.916Z,12.15
2023-04-18T10:57:30.767Z,11.70
2023-04-18T11:00:00.945Z,9.80
2023-04-18T11:02:33.312Z,10.65
2023-04-18T11:05:04.876Z,11.90
2023-04-18T11:07:49.014Z,11.73
2023-04-18T11:10:20.759Z,10.78
2023-04-18T11:12:50.709Z,9.43
2023-04-18T11:15:24.676Z,9.65
2023-04-18T11:17:59.810Z,9.30
2023-04-18T11:20:30.912Z,10.43
2023-04-18T11:23:01.379Z,9.65
2023-04-18T11:25:35.101Z,9.45
2023-04-18T11:28:05.873Z,8.35
2023-04-18T11:30:39.708Z,8.63
2023-04-18T11:33:13.202Z,7.00
2023-04-18T11:35:45.338Z,8.88
2023-04-18T11:38:16.024Z,8.00
2023-04-18T11:40:52.078Z,7.90
2023-04-18T11:43:25.787Z,7.00
2023-04-18T11:46:00.238Z,7.72
2023-04-18T11:48:38.171Z,8.43
2023-04-18T11:51:09.348Z,7.72
2023-04-18T11:53:39.572Z,7.90
2023-04-18T11:56:09.197Z,7.00
2023-04-18T11:58:38.637Z,6.53
2023-04-18T12:01:20.213Z,6.87
2023-04-18T12:04:09.281Z,7.08
2023-04-18T12:06:54.845Z,6.45
2023-04-18T12:09:25.988Z,7.05
2023-04-18T12:12:04.256Z,6.22
2023-04-18T12:14:35.153Z,5.92
2023-04-18T12:17:05.337Z,5.75
2023-04-18T12:19:34.751Z,6.47
2023-04-18T12:22:06.284Z,6.22
2023-04-18T12:24:36.017Z,5.92
2023-04-18T12:27:05.473Z,4.85
2023-04-18T12:29:34.894Z,4.57
2023-04-18T12:32:04.524Z,4.70
2023-04-18T12:34:33.905Z,4.07
2023-04-18T12:37:04.949Z,3.10
2023-04-18T12:39:34.336Z,2.77
2023-04-18T12:45:28.016Z,3.55
2023-04-18T12:47:57.545Z,4.20
2023-04-18T12:50:28.140Z,3.67
2023-04-18T12:53:00.147Z,3.62
2023-04-18T12:55:29.822Z,4.17
2023-04-18T12:57:59.335Z,3.65
2023-04-18T13:00:31.376Z,2.60
2023-04-18T13:03:01.424Z,3.40
2023-04-18T13:05:33.436Z,3.08
2023-04-18T13:08:15.173Z,3.10
2023-04-18T13:10:33.928Z,4.65
2023-04-18T13:13:03.416Z,3.17
2023-04-18T13:15:33.469Z,3.03
2023-04-18T13:18:04.949Z,2.92
2023-04-18T13:20:36.502Z,3.40
2023-04-18T13:23:06.052Z,2.87
2023-04-18T13:25:35.459Z,2.83
2023-04-18T13:28:05.029Z,2.87
2023-04-18T13:30:35.742Z,3.08
2023-04-18T13:36:41.244Z,3.37
2023-04-18T13:39:11.166Z,3.83
2023-04-18T13:41:40.564Z,3.90
2023-04-18T13:44:10.005Z,4.62
2023-04-18T13:46:39.324Z,3.62
2023-04-18T13:49:08.859Z,4.03
2023-04-18T13:51:38.298Z,3.67
2023-04-18T13:54:07.855Z,4.20
2023-04-18T13:56:37.283Z,4.03
2023-04-18T13:59:06.795Z,4.20
2023-04-18T14:01:36.335Z,4.10
2023-04-18T14:04:06.410Z,3.47
2023-04-18T14:09:06.698Z,4.87
2023-04-18T14:11:36.565Z,3.33
2023-04-18T14:14:06.861Z,4.72
2023-04-18T14:16:36.397Z,4.40
2023-04-18T14:19:05.893Z,4.00
2023-04-18T14:21:35.850Z,4.07
2023-04-18T14:24:06.761Z,3.50
2023-04-18T14:26:36.311Z,4.20
2023-04-18T14:29:06.132Z,3.30
2023-04-18T14:31:35.782Z,4.10
2023-04-18T14:34:05.688Z,3.70
2023-04-18T14:36:36.622Z,3.52
2023-04-18T14:39:06.047Z,3.85
2023-04-18T14:41:35.692Z,3.87
2023-04-18T14:44:05.663Z,3.50
2023-04-18T14:46:35.261Z,3.20
2023-04-18T14:49:04.677Z,3.50
2023-04-18T14:51:34.114Z,4.50
2023-04-18T14:54:03.629Z,4.10
2023-04-18T14:56:33.043Z,5.17
2023-04-18T14:59:02.749Z,5.50
2023-04-18T15:01:32.314Z,4.85
2023-04-18T15:04:03.450Z,5.20
2023-04-18T15:06:33.327Z,5.20
2023-04-18T15:09:02.698Z,6.10
2023-04-18T15:11:32.235Z,5.00
2023-04-18T15:14:01.569Z,5.53
2023-04-18T15:16:32.059Z,5.33
2023-04-18T15:19:01.467Z,4.60
2023-04-18T15:21:30.913Z,6.03
2023-04-18T15:24:00.461Z,5.17
2023-04-18T15:26:31.687Z,5.03
2023-04-18T15:29:04.261Z,5.45
2023-04-18T15:31:34.125Z,5.83
2023-04-18T15:34:03.728Z,5.15
2023-04-18T15:36:33.142Z,5.33
2023-04-18T15:39:06.655Z,5.30
2023-04-18T15:41:37.623Z,5.25
2023-04-18T15:44:08.028Z,5.90
2023-04-18T15:46:38.082Z,5.20
2023-04-18T15:49:07.588Z,5.15
2023-04-18T15:51:37.149Z,5.77
2023-04-18T15:54:06.725Z,5.67
2023-04-18T15:56:36.867Z,4.80
2023-04-18T15:59:07.186Z,5.20
2023-04-18T16:01:36.690Z,5.10
2023-04-18T16:04:06.185Z,4.97
2023-04-18T16:06:35.741Z,4.40
2023-04-18T16:09:06.767Z,4.10
2023-04-18T16:11:36.108Z,5.40
2023-04-18T16:14:05.552Z,5.33
2023-04-18T16:16:34.929Z,6.45
2023-04-18T16:19:05.472Z,4.42
2023-04-18T16:21:34.809Z,4.28
2023-04-18T16:24:04.320Z,4.50
2023-04-18T16:26:33.768Z,5.45
2023-04-18T16:29:03.413Z,4.87
2023-04-18T16:31:33.989Z,3.80
2023-04-18T16:34:03.639Z,6.45
2023-04-18T16:36:37.265Z,5.87
2023-04-18T16:39:06.712Z,5.08
2023-04-18T16:41:36.106Z,4.50
2023-04-18T16:44:05.851Z,5.17
2023-04-18T16:46:35.237Z,4.12
2023-04-18T16:49:04.770Z,4.67
2023-04-18T16:51:35.839Z,5.17
2023-04-18T16:54:06.184Z,4.67
2023-04-18T16:59:04.404Z,4.17
2023-04-18T17:01:33.996Z,4.83
2023-04-18T17:04:04.029Z,4.30
2023-04-18T17:06:33.941Z,3.70
2023-04-18T17:09:05.130Z,4.53
2023-04-18T17:11:38.145Z,4.15
2023-04-18T17:14:08.460Z,3.45
2023-04-18T17:16:41.785Z,3.98
2023-04-18T17:19:12.137Z,4.53
2023-04-18T17:24:10.435Z,3.60
2023-04-18T17:26:40.499Z,4.12
2023-04-18T17:29:10.434Z,2.80
2023-04-18T17:31:39.903Z,4.37
2023-04-18T17:34:09.467Z,4.33
2023-04-18T17:36:38.917Z,4.80
2023-04-18T17:39:09.715Z,4.03
2023-04-18T17:41:40.305Z,4.72
2023-04-18T17:44:10.359Z,6.60
2023-04-18T17:46:39.807Z,5.12
2023-04-18T17:49:09.614Z,3.65
2023-04-18T17:51:38.990Z,3.75
2023-04-18T17:54:08.757Z,3.52
2023-04-18T17:56:38.229Z,3.30
2023-04-18T17:59:07.635Z,2.93
2023-04-18T18:01:37.085Z,2.30
2023-04-18T18:04:06.693Z,3.10
2023-04-18T18:06:36.303Z,4.53
2023-04-18T18:09:05.697Z,5.83
2023-04-18T18:11:35.166Z,4.50
2023-04-18T18:14:04.540Z,3.98
2023-04-18T18:16:34.019Z,3.25
2023-04-18T18:19:03.515Z,3.00
2023-04-18T18:21:33.001Z,3.63
2023-04-18T18:24:02.424Z,7.53
2023-04-18T18:26:31.829Z,4.58
2023-04-18T18:29:02.065Z,4.15
2023-04-18T18:31:31.501Z,3.00
2023-04-18T18:34:01.061Z,3.10
2023-04-18T18:36:31.274Z,3.02
2023-04-18T18:39:00.660Z,2.80
2023-04-18T18:41:30.574Z,3.35
2023-04-18T18:44:00.037Z,3.58
2023-04-18T18:46:29.445Z,2.95
2023-04-18T18:48:58.842Z,3.52
2023-04-18T18:51:29.116Z,3.60
2023-04-18T18:53:58.534Z,2.80
2023-04-18T18:56:28.023Z,2.93
2023-04-18T18:58:57.582Z,2.65
2023-04-18T19:01:28.633Z,3.93
2023-04-18T19:03:58.307Z,2.60
2023-04-18T19:06:28.011Z,3.17
2023-04-18T19:08:57.359Z,2.90
2023-04-18T19:11:27.287Z,3.15
2023-04-18T19:13:56.649Z,3.12
2023-04-18T19:16:26.392Z,3.33
2023-04-18T19:18:55.717Z,2.55
2023-04-18T19:21:25.878Z,3.33
2023-04-18T19:23:55.677Z,4.05
2023-04-18T19:26:25.157Z,3.08
2023-04-18T19:28:54.644Z,2.95
2023-04-18T19:31:24.154Z,2.77
2023-04-18T19:33:53.526Z,3.92
2023-04-18T19:36:22.916Z,3.10
2023-04-18T19:38:52.357Z,3.33
2023-04-18T19:41:21.852Z,3.27
2023-04-18T19:43:51.270Z,3.17
2023-04-18T19:46:20.805Z,3.47
2023-04-18T19:48:50.386Z,4.47
2023-04-18T19:51:19.980Z,3.87
2023-04-18T19:53:49.403Z,3.97
2023-04-18T19:56:18.808Z,4.00
2023-04-18T19:58:49.042Z,4.90
2023-04-18T20:01:21.078Z,5.33
2023-04-18T20:03:50.922Z,7.58
2023-04-18T20:06:20.681Z,7.03
2023-04-18T20:08:50.117Z,9.37
2023-04-18T20:11:19.949Z,14.03
2023-04-18T20:13:49.705Z,13.28
2023-04-18T20:16:19.402Z,10.45
2023-04-18T20:18:49.902Z,7.70
2023-04-18T20:21:19.338Z,5.20
2023-04-18T20:23:48.739Z,4.30
2023-04-18T20:26:18.125Z,3.42
2023-04-18T20:28:47.537Z,3.55
2023-04-18T20:31:17.066Z,3.47
2023-04-18T20:33:46.677Z,2.98
2023-04-18T20:36:17.556Z,3.33
2023-04-18T20:38:47.100Z,4.40
2023-04-18T20:41:18.579Z,3.65
2023-04-18T20:43:48.064Z,5.45
2023-04-18T20:46:17.470Z,4.03
2023-04-18T20:48:46.855Z,3.43
2023-04-18T20:51:16.281Z,3.73
2023-04-18T20:53:45.845Z,4.13
2023-04-18T20:56:15.190Z,4.40
2023-04-18T20:58:44.676Z,3.83
2023-04-18T21:01:14.115Z,3.83
2023-04-18T21:03:43.756Z,3.75
2023-04-18T21:06:13.381Z,3.60
2023-04-18T21:08:42.835Z,3.58
2023-04-18T21:11:12.187Z,4.03
2023-04-18T21:13:41.906Z,4.45
2023-04-18T21:16:11.406Z,3.90
2023-04-18T21:18:40.850Z,4.20
2023-04-18T21:21:10.274Z,4.33
2023-04-18T21:23:44.617Z,4.37
2023-04-18T21:26:14.360Z,4.17
2023-04-18T21:28:57.940Z,4.00
2023-04-18T21:31:29.502Z,4.15
2023-04-18T21:34:00.804Z,4.53
2023-04-18T21:36:31.199Z,4.03
2023-04-18T21:39:01.658Z,4.17
2023-04-18T21:41:31.116Z,4.00
2023-04-18T21:44:00.622Z,4.70
2023-04-18T21:46:30.231Z,3.63
2023-04-18T21:48:59.710Z,4.62
2023-04-18T21:51:29.146Z,4.63
2023-04-18T21:53:59.047Z,4.37
2023-04-18T21:56:28.448Z,3.98
2023-04-18T21:58:57.876Z,5.00
2023-04-18T22:01:27.306Z,3.73
2023-04-18T22:03:56.946Z,3.20
2023-04-18T22:06:26.979Z,4.70
2023-04-18T22:08:56.516Z,3.80
2023-04-18T22:11:26.017Z,4.73
2023-04-18T22:13:57.085Z,4.03
2023-04-18T22:16:28.111Z,4.42
2023-04-18T22:18:57.754Z,4.80
2023-04-18T22:21:27.484Z,4.03
2023-04-18T22:23:56.879Z,4.25
2023-04-18T22:26:26.273Z,3.53
2023-04-18T22:28:55.784Z,3.90
2023-04-18T22:31:25.368Z,4.07
2023-04-18T22:33:54.897Z,3.30
2023-04-18T22:36:24.409Z,3.13
2023-04-18T22:38:53.747Z,3.33
2023-04-18T22:41:23.277Z,3.42
2023-04-18T22:43:52.809Z,4.23
2023-04-18T22:46:22.668Z,3.80
2023-04-18T22:48:51.985Z,3.87
2023-04-18T22:51:23.082Z,3.02
2023-04-18T22:53:52.418Z,4.30
2023-04-18T22:56:21.993Z,3.87
2023-04-18T22:58:51.417Z,4.40
2023-04-18T23:01:20.956Z,4.47
2023-04-18T23:03:50.421Z,4.50
2023-04-18T23:06:21.093Z,3.70
2023-04-18T23:11:18.958Z,5.08
2023-04-18T23:13:48.369Z,6.20
2023-04-18T23:16:17.923Z,7.43
2023-04-18T23:18:47.466Z,3.55
2023-04-18T23:21:17.357Z,4.13
2023-04-18T23:23:46.885Z,4.47
2023-04-18T23:26:16.948Z,3.80
2023-04-18T23:28:46.427Z,4.60
2023-04-18T23:31:16.062Z,3.50
2023-04-18T23:33:45.656Z,3.30
2023-04-18T23:36:14.983Z,4.03
2023-04-18T23:38:44.579Z,4.60
2023-04-18T23:41:14.008Z,4.90
2023-04-18T23:43:43.488Z,6.07
2023-04-18T23:46:12.997Z,4.70
2023-04-18T23:48:42.544Z,7.42
2023-04-18T23:51:11.981Z,5.33
2023-04-18T23:53:41.537Z,6.72
2023-04-18T23:56:10.889Z,6.83
2023-04-18T23:58:40.364Z,9.78
